EDDL/DUS METAR and TAF weather

Enter ICAO airport designator
Station Type Date Time Source
EDDL METAR 2018/10/16 21:20 UTC NOAA

EDDL 162120Z 15006KT CAVOK 15/11 Q1019 NOSIG


Station Type Date Time Source
EDDL Decoded METAR 2018/10/16 21:20 UTC NOAA

Duesseldorf, Germany (EDDL) 51-18N 006-46E 41M
Oct 16, 2018 - 05:20 PM EDT / 2018.10.16 2120 UTC
Wind: from the SSE (150 degrees) at 7 MPH (6 KT):0
Visibility: greater than 7 mile(s):0
Temperature: 59 F (15 C)
Dew Point: 51 F (11 C)
Relative Humidity: 76%
Pressure (altimeter): 30.09 in. Hg (1019 hPa)
ob: EDDL 162120Z 15006KT CAVOK 15/11 Q1019 NOSIG
cycle: 21

Station Type Date Time Source
EDDL TAF 2018/10/16 18:30 UTC NOAA

TAF EDDL 161700Z 1618/1724 VRB03KT CAVOK
BECMG 1620/1623 15006KT
BECMG 1712/1715 35004KT


Example: see airport list